Time;durP1;ratioP1;P1;durP2;ratioP2;P2;SDS_P1;SDS_P2;PMS_P1;PMS_P2;Temp;Humidity;BMP_temperature;BMP_pressure;BME280_temperature;BME280_humidity;BME280_pressure;Samples;Min_cycle;Max_cycle;Signal;HPM_P1;HPM_P2
2021/04/30 05:58:09;;;;;;;13.03;7.72;;;;;;;12.04;63.95;99465.58;1833581;77;26089;-64
2021/04/30 06:00:38;;;;;;;12.10;7.00;;;;;;;12.06;63.69;99464.94;1792995;80;21582;-63
2021/04/30 06:03:06;;;;;;;13.45;6.15;;;;;;;12.14;63.59;99461.44;1787832;80;21566;-62
2021/04/30 06:05:35;;;;;;;10.80;6.72;;;;;;;12.24;63.30;99454.69;1793801;80;21590;-64
2021/04/30 06:08:04;;;;;;;10.95;7.15;;;;;;;12.32;63.08;99451.50;1793368;80;21622;-65
2021/04/30 06:10:33;;;;;;;13.58;6.92;;;;;;;12.43;62.65;99452.09;1793566;80;21626;-64
2021/04/30 06:13:05;;;;;;;10.85;6.37;;;;;;;12.53;62.49;99457.39;1791233;79;21728;-64
2021/04/30 06:15:33;;;;;;;9.25;6.67;;;;;;;12.62;62.05;99448.48;1793331;80;21265;-63
2021/04/30 06:18:02;;;;;;;12.40;7.22;;;;;;;12.70;61.77;99448.91;1771147;80;21776;-62
2021/04/30 06:20:31;;;;;;;12.40;6.90;;;;;;;12.77;61.61;99447.20;1761343;81;21597;-61
2021/04/30 06:22:59;;;;;;;15.72;6.42;;;;;;;12.85;61.17;99448.92;1762653;80;21582;-60
2021/04/30 06:25:29;;;;;;;12.00;6.33;;;;;;;12.92;61.18;99442.80;1763906;80;21594;-64
2021/04/30 06:27:57;;;;;;;13.93;6.55;;;;;;;13.00;60.95;99438.47;1777285;78;21135;-61
2021/04/30 06:30:28;;;;;;;9.93;6.10;;;;;;;13.09;60.66;99433.44;1779364;80;21131;-62
2021/04/30 06:32:57;;;;;;;9.38;5.55;;;;;;;13.17;60.67;99435.50;1782543;80;21638;-59
2021/04/30 06:35:26;;;;;;;10.50;5.37;;;;;;;13.27;60.64;99440.98;1787483;80;21289;-64
2021/04/30 06:37:54;;;;;;;8.13;5.47;;;;;;;13.34;59.93;99434.83;1783599;78;21126;-61
2021/04/30 06:40:23;;;;;;;9.28;5.67;;;;;;;13.42;59.97;99439.19;1761967;81;21743;-60
2021/04/30 06:42:52;;;;;;;7.83;5.50;;;;;;;13.52;59.34;99433.64;1761573;81;21783;-59
2021/04/30 06:45:21;;;;;;;8.40;5.78;;;;;;;13.59;59.49;99427.97;1742358;81;21771;-63
2021/04/30 06:47:49;;;;;;;8.95;5.60;;;;;;;13.70;59.23;99437.50;1731600;83;21280;-59
2021/04/30 06:50:18;;;;;;;10.93;5.60;;;;;;;13.82;58.62;99429.16;1749855;80;21573;-60
2021/04/30 06:52:47;;;;;;;7.10;5.05;;;;;;;13.92;58.71;99430.49;1740406;81;21660;-64
2021/04/30 06:55:15;;;;;;;7.22;5.35;;;;;;;14.03;58.22;99421.79;1758052;80;21598;-60
2021/04/30 06:57:43;;;;;;;8.28;5.30;;;;;;;14.13;57.82;99425.75;1723410;81;21633;-60
2021/04/30 07:00:16;;;;;;;10.90;5.42;;;;;;;14.23;57.55;99424.14;1725672;82;21522;-59
2021/04/30 07:02:46;;;;;;;8.38;4.87;;;;;;;14.32;57.16;99419.55;1738261;80;21563;-59
2021/04/30 07:05:15;;;;;;;7.83;4.72;;;;;;;14.40;56.66;99425.98;1718973;82;21772;-60
2021/04/30 07:07:43;;;;;;;6.15;4.40;;;;;;;14.44;55.96;99421.48;1719102;83;21562;-61
2021/04/30 07:10:13;;;;;;;7.35;4.87;;;;;;;14.49;56.26;99417.02;1729700;82;21527;-63
2021/04/30 07:12:41;;;;;;;8.45;5.97;;;;;;;14.59;56.07;99419.30;1747206;82;21189;-63
2021/04/30 07:15:11;;;;;;;9.03;5.70;;;;;;;14.68;55.94;99428.19;1743692;80;21659;-62
2021/04/30 07:17:40;;;;;;;7.58;4.40;;;;;;;14.80;55.54;99417.45;1742898;82;21301;-65
2021/04/30 07:20:10;;;;;;;6.25;4.40;;;;;;;14.91;55.23;99415.30;1720541;82;21686;-63
2021/04/30 07:22:38;;;;;;;5.97;4.80;;;;;;;15.06;54.94;99414.67;1728076;80;21613;-63
2021/04/30 07:25:09;;;;;;;5.25;4.10;;;;;;;15.18;54.42;99407.86;1743360;80;22050;-60
2021/04/30 07:27:37;;;;;;;6.25;4.17;;;;;;;15.26;53.89;99408.20;1738522;82;22190;-59
2021/04/30 07:30:07;;;;;;;8.83;5.00;;;;;;;15.31;54.43;99409.75;1747464;82;21732;-61
2021/04/30 07:32:35;;;;;;;6.35;5.00;;;;;;;15.38;53.90;99403.20;1737690;82;21187;-59
2021/04/30 07:35:05;;;;;;;8.10;4.53;;;;;;;15.41;53.90;99406.77;1742819;82;21606;-58
2021/04/30 07:37:34;;;;;;;7.17;4.45;;;;;;;15.39;53.55;99405.63;1737869;80;21617;-63
2021/04/30 07:40:07;;;;;;;9.95;4.70;;;;;;;15.41;53.68;99402.31;1739185;80;21734;-61
2021/04/30 07:42:36;;;;;;;9.33;5.15;;;;;;;15.46;54.07;99410.41;1742170;80;21638;-60
2021/04/30 07:45:07;;;;;;;6.70;4.60;;;;;;;15.49;53.68;99406.09;1721570;82;21284;-61
2021/04/30 07:47:35;;;;;;;9.70;4.85;;;;;;;15.52;53.62;99395.14;1727860;82;21171;-62
2021/04/30 07:50:07;;;;;;;8.48;4.33;;;;;;;15.51;53.31;99396.67;1725577;80;21126;-62
2021/04/30 07:52:35;;;;;;;6.10;4.62;;;;;;;15.45;53.67;99391.68;1722323;82;21190;-59
2021/04/30 07:55:05;;;;;;;7.97;4.53;;;;;;;15.50;54.07;99388.47;1747888;82;21602;-61
2021/04/30 07:57:35;;;;;;;6.20;4.50;;;;;;;15.55;53.40;99380.80;1738317;81;21127;-63
2021/04/30 08:00:05;;;;;;;5.97;4.67;;;;;;;15.60;53.47;99387.09;1734544;82;21139;-63
2021/04/30 08:02:36;;;;;;;12.58;5.47;;;;;;;15.65;53.27;99389.17;1724244;81;21563;-65
2021/04/30 08:05:07;;;;;;;12.00;4.78;;;;;;;15.66;52.55;99379.45;1722369;80;21175;-63
2021/04/30 08:07:36;;;;;;;7.70;4.55;;;;;;;15.67;52.78;99387.14;1746200;82;21172;-65
2021/04/30 08:10:07;;;;;;;10.00;4.85;;;;;;;15.84;53.54;99365.21;1738755;80;21163;-66
2021/04/30 08:12:38;;;;;;;9.15;4.22;;;;;;;16.13;53.63;99366.65;1738182;82;21178;-63
2021/04/30 08:15:09;;;;;;;7.45;4.75;;;;;;;16.41;52.28;99358.05;1733228;80;21159;-63
2021/04/30 08:17:48;;;;;;;7.08;4.05;;;;;;;16.67;52.17;99370.91;1727915;82;21107;-64
2021/04/30 08:20:25;;;;;;;6.65;3.80;;;;;;;16.90;50.81;99355.98;1726355;82;21191;-60
2021/04/30 08:22:56;;;;;;;4.65;3.87;;;;;;;17.01;50.92;99352.68;1743362;82;21183;-62
2021/04/30 08:25:28;;;;;;;5.53;3.95;;;;;;;17.04;50.49;99361.52;1741806;80;21311;-59
2021/04/30 08:27:59;;;;;;;8.83;3.87;;;;;;;16.94;49.91;99346.11;1784475;80;21614;-57
2021/04/30 08:30:29;;;;;;;7.42;3.92;;;;;;;16.89;50.38;99346.42;1737417;80;21258;-57
2021/04/30 08:32:58;;;;;;;7.70;3.77;;;;;;;16.92;50.49;99346.02;1718167;82;21633;-58
2021/04/30 08:35:26;;;;;;;7.12;4.58;;;;;;;16.93;50.34;99341.85;1733355;82;21131;-57
2021/04/30 08:38:04;;;;;;;5.85;3.75;;;;;;;16.96;50.56;99328.77;1725982;80;21610;-61
2021/04/30 08:40:34;;;;;;;8.00;4.10;;;;;;;17.04;50.37;99338.28;1718295;82;21147;-63
2021/04/30 08:43:05;;;;;;;8.03;5.28;;;;;;;17.16;50.17;99336.61;1696156;83;21180;-61
2021/04/30 08:45:40;;;;;;;11.03;5.87;;;;;;;17.32;49.64;99316.83;1738653;82;21257;-61
2021/04/30 08:48:11;;;;;;;26.97;5.70;;;;;;;17.46;49.62;99328.45;1719335;82;21108;-61
2021/04/30 08:50:42;;;;;;;7.17;4.33;;;;;;;17.63;49.32;99331.38;1735458;80;21649;-62
2021/04/30 08:53:13;;;;;;;5.75;4.22;;;;;;;17.66;48.45;99330.17;1730193;82;21131;-62
2021/04/30 08:55:42;;;;;;;8.78;4.15;;;;;;;17.53;48.59;99344.27;1734545;82;21171;-61
2021/04/30 08:58:11;;;;;;;7.87;4.75;;;;;;;17.32;48.56;99341.91;1743937;81;21155;-63
2021/04/30 09:00:40;;;;;;;8.58;4.75;;;;;;;17.10;48.72;99333.48;1752880;80;21550;-63
2021/04/30 09:03:10;;;;;;;10.00;6.08;;;;;;;16.85;49.50;99334.68;1740005;80;21194;-61
2021/04/30 09:05:43;;;;;;;12.85;8.68;;;;;;;16.69;49.85;99320.88;1746455;81;21594;-59
2021/04/30 09:08:15;;;;;;;7.03;4.37;;;;;;;16.65;50.30;99334.19;1721601;81;21178;-57
2021/04/30 09:10:50;;;;;;;7.62;4.25;;;;;;;16.75;50.98;99328.50;1740691;81;21280;-57
2021/04/30 09:13:21;;;;;;;7.28;4.40;;;;;;;16.96;50.35;99326.12;1668653;84;21332;-59
2021/04/30 09:16:06;;;;;;;5.90;3.60;;;;;;;17.10;49.99;99315.81;1678090;83;21162;-60
2021/04/30 09:18:36;;;;;;;7.75;3.92;;;;;;;17.18;50.15;99314.77;1669131;84;21323;-58
2021/04/30 09:21:10;;;;;;;7.05;3.62;;;;;;;17.21;49.02;99323.59;1693372;84;21557;-60
2021/04/30 09:23:46;;;;;;;10.00;4.85;;;;;;;17.18;49.22;99307.66;1666647;86;21190;-59
2021/04/30 09:26:32;;;;;;;;;;;;;;;17.25;49.57;99305.48;1676645;83;21753;-64
2021/04/30 09:29:08;;;;;;;5.65;3.52;;;;;;;17.34;48.82;99298.45;1693879;85;20144;-58
2021/04/30 09:31:43;;;;;;;8.45;3.75;;;;;;;17.42;49.38;99303.98;1703842;83;21167;-62
2021/04/30 09:34:36;;;;;;;9.40;3.95;;;;;;;17.50;48.47;99297.94;1692180;84;21630;-62
2021/04/30 09:37:17;;;;;;;6.25;3.98;;;;;;;17.55;48.87;99293.86;1697281;83;21264;-59
2021/04/30 09:40:02;;;;;;;9.03;4.10;;;;;;;17.73;48.67;99291.33;1723297;83;21115;-57
2021/04/30 09:42:33;;;;;;;6.85;4.12;;;;;;;17.91;48.07;99288.76;1708053;83;21195;-62
2021/04/30 09:45:06;;;;;;;9.43;4.85;;;;;;;18.05;47.72;99282.05;1696337;84;21151;-60
